LGAL/AXD METAR and TAF weather

Enter ICAO airport designator
Station Type Date Time Source
LGAL METAR 2022/12/05 15:20 UTC NOAA

LGAL 051520Z 07005KT 9999 FEW020 SCT040 10/07 Q1024


Station Type Date Time Source
LGAL Decoded METAR 2022/12/05 15:20 UTC NOAA

Alexandroupoli Airport , Greece (LGAL) 40-51N 025-55E 3M
Dec 05, 2022 - 10:20 AM EST / 2022.12.05 1520 UTC
Wind: from the ENE (070 degrees) at 6 MPH (5 KT):0
Visibility: greater than 7 mile(s):0
Sky conditions: partly cloudy
Temperature: 50 F (10 C)
Dew Point: 44 F (7 C)
Relative Humidity: 81%
Pressure (altimeter): 30.24 in. Hg (1024 hPa)
ob: LGAL 051520Z 07005KT 9999 FEW020 SCT040 10/07 Q1024
cycle: 15

Station Type Date Time Source
LGAL TAF 2012/09/21 03:06 UTC NOAA

TAF TAF LGAL 210200Z 2103/2115 03012G22KT 9999 FEW020 SCT070 PROB30
TEMPO 2103/2106 6000 RA SCT015 BKN030 PROB30

Example: see airport list